Terminal Aerodrome Forecast
Issued by NWS

Current Version | Previous Version | Text Only | Print | Product List | Glossary On
Versions: 1 2 3 4 5 6 7 8 9 10 11 12 13 14 15 16 17
000
FTUS44 KEWX 250026 AAA
TAFSSF
TAF AMD
KSSF 250026Z 2500/2524 11008KT P6SM SCT060 SCT250
     FM251000 VRB04KT P6SM BKN012
     FM251400 14007KT P6SM SCT030 SCT100=

USA.gov is the U.S. government's official web portal to all federal, state and local government web resources and services.